Time;durP1;ratioP1;P1;durP2;ratioP2;P2;SDS_P1;SDS_P2;PMS_P1;PMS_P2;Temp;Humidity;BMP_temperature;BMP_pressure;BME280_temperature;BME280_humidity;BME280_pressure;Samples;Min_cycle;Max_cycle;Signal;HPM_P1;HPM_P2
2022/03/14 00:01:56;;;;;;;14.40;5.70;;;;;;;;;;5018722;28;20141;-76
2022/03/14 00:04:22;;;;;;;13.68;5.55;;;;;;;;;;5019526;28;20054;-76
2022/03/14 00:06:48;;;;;;;8.77;4.82;;;;;;;;;;5016488;28;20129;-75
2022/03/14 00:09:17;;;;;;;11.23;5.20;;;;;;;;;;5017335;28;20049;-76
2022/03/14 00:11:44;;;;;;;12.38;5.30;;;;;;;;;;5019779;28;20171;-78
2022/03/14 00:14:10;;;;;;;12.60;5.20;;;;;;;;;;5017660;28;20137;-77
2022/03/14 00:16:39;;;;;;;14.70;5.30;;;;;;;;;;5016484;28;21003;-76
2022/03/14 00:19:06;;;;;;;7.55;5.00;;;;;;;;;;5012514;28;20144;-76
2022/03/14 00:21:38;;;;;;;9.02;4.82;;;;;;;;;;5016541;28;20085;-77
2022/03/14 00:24:05;;;;;;;8.48;4.60;;;;;;;;;;5014591;28;20116;-76
2022/03/14 00:26:32;;;;;;;7.78;4.68;;;;;;;;;;5014346;28;20399;-74
2022/03/14 00:28:58;;;;;;;11.15;4.75;;;;;;;;;;5015281;28;20045;-76
2022/03/14 00:31:24;;;;;;;8.95;4.80;;;;;;;;;;5014884;28;20498;-74
2022/03/14 00:33:51;;;;;;;12.40;4.70;;;;;;;;;;5016277;28;20394;-77
2022/03/14 00:36:18;;;;;;;9.55;4.60;;;;;;;;;;5021316;28;20042;-76
2022/03/14 00:38:44;;;;;;;12.35;4.15;;;;;;;;;;5016503;28;20422;-76
2022/03/14 00:41:10;;;;;;;8.43;4.05;;;;;;;;;;5026876;28;20140;-75
2022/03/14 00:43:36;;;;;;;12.45;4.82;;;;;;;;;;5025093;28;20045;-77
2022/03/14 00:46:02;;;;;;;10.07;4.28;;;;;;;;;;5025063;28;20064;-75
2022/03/14 00:48:28;;;;;;;7.53;3.70;;;;;;;;;;5020879;28;20046;-77
2022/03/14 00:50:54;;;;;;;10.00;3.55;;;;;;;;;;5018421;28;20094;-76
2022/03/14 00:53:20;;;;;;;7.80;3.60;;;;;;;;;;5020953;28;20050;-77
2022/03/14 00:55:46;;;;;;;5.78;4.00;;;;;;;;;;5023288;28;20041;-76
2022/03/14 00:58:12;;;;;;;7.82;2.85;;;;;;;;;;5018382;28;20055;-77
2022/03/14 01:00:38;;;;;;;7.88;3.60;;;;;;;;;;5018768;28;20107;-76
2022/03/14 01:03:04;;;;;;;7.70;3.28;;;;;;;;;;5021202;28;20054;-75
2022/03/14 01:05:30;;;;;;;5.80;3.15;;;;;;;;;;5021251;28;20581;-75
2022/03/14 01:07:56;;;;;;;7.30;2.83;;;;;;;;;;5025857;28;20136;-76
2022/03/14 01:10:23;;;;;;;4.28;2.60;;;;;;;;;;5024309;28;20124;-75
2022/03/14 01:12:49;;;;;;;9.18;3.03;;;;;;;;;;5024308;28;20052;-78
2022/03/14 01:15:16;;;;;;;5.80;3.00;;;;;;;;;;5025548;28;20142;-76
2022/03/14 01:17:42;;;;;;;5.95;2.90;;;;;;;;;;5021580;28;20045;-76
2022/03/14 01:20:10;;;;;;;8.63;3.00;;;;;;;;;;5020775;28;20562;-76
2022/03/14 01:22:38;;;;;;;5.85;2.47;;;;;;;;;;5029035;28;20049;-76
2022/03/14 01:25:04;;;;;;;6.03;2.65;;;;;;;;;;5024625;28;20054;-76
2022/03/14 01:27:31;;;;;;;5.78;2.40;;;;;;;;;;5022180;28;20498;-78
2022/03/14 01:29:57;;;;;;;7.65;2.70;;;;;;;;;;5023014;28;20050;-77
2022/03/14 01:32:23;;;;;;;5.65;2.45;;;;;;;;;;5022903;28;20077;-75
2022/03/14 01:34:49;;;;;;;6.05;2.38;;;;;;;;;;5017311;28;20641;-77
2022/03/14 01:37:19;;;;;;;4.70;2.38;;;;;;;;;;5022324;28;20049;-76
2022/03/14 01:39:45;;;;;;;4.65;2.33;;;;;;;;;;5019005;28;20503;-75
2022/03/14 01:42:18;;;;;;;9.23;2.70;;;;;;;;;;5017665;28;20061;-76
2022/03/14 01:44:46;;;;;;;6.00;2.47;;;;;;;;;;5017384;28;20037;-75
2022/03/14 01:47:14;;;;;;;5.32;2.17;;;;;;;;;;5019012;28;20937;-76
2022/03/14 01:49:45;;;;;;;4.63;2.40;;;;;;;;;;5022755;28;20045;-74
2022/03/14 01:52:13;;;;;;;7.05;2.40;;;;;;;;;;5015447;28;20045;-77
2022/03/14 01:54:42;;;;;;;4.55;2.10;;;;;;;;;;5020436;28;20096;-77
2022/03/14 01:57:08;;;;;;;3.95;2.10;;;;;;;;;;5017882;28;20420;-77
2022/03/14 01:59:34;;;;;;;3.25;1.92;;;;;;;;;;5015138;28;20128;-76
2022/03/14 02:02:00;;;;;;;4.97;2.10;;;;;;;;;;5018153;28;20107;-76
2022/03/14 02:04:26;;;;;;;3.90;2.08;;;;;;;;;;5018608;28;20042;-76
2022/03/14 02:06:53;;;;;;;7.78;2.53;;;;;;;;;;5020412;28;20424;-77
2022/03/14 02:09:22;;;;;;;5.50;2.15;;;;;;;;;;5012458;28;20061;-75
2022/03/14 02:11:55;;;;;;;4.50;2.15;;;;;;;;;;5020347;28;20984;-77
2022/03/14 02:14:21;;;;;;;9.65;2.50;;;;;;;;;;5019781;28;20057;-75
2022/03/14 02:16:48;;;;;;;5.10;2.17;;;;;;;;;;5018204;28;20053;-77
2022/03/14 02:19:15;;;;;;;6.95;2.60;;;;;;;;;;5012637;28;20086;-75
2022/03/14 02:21:41;;;;;;;8.23;2.42;;;;;;;;;;5013545;28;20053;-72
2022/03/14 02:24:07;;;;;;;12.38;2.90;;;;;;;;;;5016038;28;20052;-75
2022/03/14 02:26:41;;;;;;;14.88;2.85;;;;;;;;;;5012780;28;20056;-76
2022/03/14 02:29:08;;;;;;;10.88;2.63;;;;;;;;;;5012152;28;20054;-75
2022/03/14 02:31:36;;;;;;;11.27;2.72;;;;;;;;;;5016210;28;20077;-74
2022/03/14 02:34:07;;;;;;;9.48;2.60;;;;;;;;;;5015159;28;20142;-76
2022/03/14 02:36:38;;;;;;;11.77;2.95;;;;;;;;;;5018238;28;20064;-76
2022/03/14 02:39:04;;;;;;;11.50;2.50;;;;;;;;;;5015864;28;20050;-75
2022/03/14 02:41:32;;;;;;;9.85;2.85;;;;;;;;;;5017960;28;20053;-75
2022/03/14 02:43:59;;;;;;;11.43;2.35;;;;;;;;;;5018968;28;20045;-74
2022/03/14 02:46:25;;;;;;;8.57;3.10;;;;;;;;;;5016235;28;20100;-76
2022/03/14 02:48:51;;;;;;;8.88;2.00;;;;;;;;;;5016336;28;20045;-77
2022/03/14 02:51:17;;;;;;;7.60;2.05;;;;;;;;;;5019394;28;20476;-75
2022/03/14 02:53:43;;;;;;;9.38;2.60;;;;;;;;;;5019627;28;20053;-75
2022/03/14 02:56:09;;;;;;;10.00;1.83;;;;;;;;;;5017510;28;20057;-75
2022/03/14 02:58:38;;;;;;;6.55;1.75;;;;;;;;;;5015164;28;20418;-76
2022/03/14 03:01:04;;;;;;;7.10;1.92;;;;;;;;;;5018390;28;20058;-76
2022/03/14 03:03:31;;;;;;;8.10;1.77;;;;;;;;;;5015157;28;20073;-76
2022/03/14 03:05:58;;;;;;;10.43;2.15;;;;;;;;;;5020132;28;20106;-77
2022/03/14 03:08:24;;;;;;;5.97;2.05;;;;;;;;;;5014846;28;20045;-75
2022/03/14 03:10:50;;;;;;;8.07;2.20;;;;;;;;;;5013340;28;20049;-75
2022/03/14 03:13:16;;;;;;;4.15;1.92;;;;;;;;;;5013006;28;20068;-76
2022/03/14 03:15:42;;;;;;;10.52;2.28;;;;;;;;;;5013501;28;20594;-76
2022/03/14 03:18:11;;;;;;;10.52;2.22;;;;;;;;;;5016447;28;20124;-74
2022/03/14 03:20:43;;;;;;;8.10;2.15;;;;;;;;;;5010395;28;20079;-74
2022/03/14 03:23:09;;;;;;;7.32;1.90;;;;;;;;;;5009203;28;20069;-77
2022/03/14 03:25:35;;;;;;;12.93;2.63;;;;;;;;;;5012050;28;20662;-75
2022/03/14 03:28:01;;;;;;;7.57;2.35;;;;;;;;;;5012416;28;20427;-76
2022/03/14 03:30:27;;;;;;;9.35;2.60;;;;;;;;;;5010935;28;20045;-76
2022/03/14 03:32:53;;;;;;;10.23;2.72;;;;;;;;;;5017689;28;20057;-77
2022/03/14 03:35:19;;;;;;;8.88;2.47;;;;;;;;;;5009850;28;20561;-75
2022/03/14 03:37:44;;;;;;;15.02;3.22;;;;;;;;;;5014561;28;20057;-76
2022/03/14 03:40:11;;;;;;;8.68;2.20;;;;;;;;;;5013038;28;20054;-77
2022/03/14 03:42:37;;;;;;;17.50;3.13;;;;;;;;;;5015924;28;20053;-75
2022/03/14 03:45:03;;;;;;;10.23;2.20;;;;;;;;;;5015460;28;20060;-75
2022/03/14 03:47:29;;;;;;;10.73;2.10;;;;;;;;;;5012726;28;20041;-75
2022/03/14 03:49:56;;;;;;;10.63;2.45;;;;;;;;;;5014734;28;20081;-76
2022/03/14 03:52:22;;;;;;;7.57;1.88;;;;;;;;;;5019109;28;20046;-76
2022/03/14 03:54:47;;;;;;;14.05;2.13;;;;;;;;;;5018697;28;20057;-75
2022/03/14 03:57:14;;;;;;;6.32;1.70;;;;;;;;;;5015978;28;20057;-76
2022/03/14 03:59:40;;;;;;;6.45;1.90;;;;;;;;;;5013711;28;20128;-74
2022/03/14 04:02:07;;;;;;;9.57;2.22;;;;;;;;;;5016973;28;20050;-74
2022/03/14 04:04:36;;;;;;;9.43;1.83;;;;;;;;;;5017556;28;20538;-73
2022/03/14 04:07:02;;;;;;;7.57;1.90;;;;;;;;;;5015860;28;20041;-76
2022/03/14 04:09:28;;;;;;;6.20;1.80;;;;;;;;;;5008998;28;20052;-72
2022/03/14 04:11:54;;;;;;;10.98;2.47;;;;;;;;;;5013254;28;20498;-74
2022/03/14 04:14:21;;;;;;;12.43;2.50;;;;;;;;;;5013663;28;20056;-73
2022/03/14 04:16:47;;;;;;;10.82;2.55;;;;;;;;;;5009928;28;20428;-73
2022/03/14 04:19:16;;;;;;;11.48;2.83;;;;;;;;;;5013969;28;20049;-73
2022/03/14 04:21:48;;;;;;;12.90;2.80;;;;;;;;;;5016251;28;20045;-74
2022/03/14 04:24:14;;;;;;;9.77;2.58;;;;;;;;;;5013194;28;20046;-72
2022/03/14 04:26:40;;;;;;;19.63;3.22;;;;;;;;;;5014979;28;20045;-73
2022/03/14 04:29:06;;;;;;;18.02;3.25;;;;;;;;;;5009446;28;20096;-74
2022/03/14 04:31:32;;;;;;;20.80;2.95;;;;;;;;;;5011690;28;20049;-74
2022/03/14 04:33:58;;;;;;;14.95;2.90;;;;;;;;;;5013756;28;20048;-73
2022/03/14 04:36:24;;;;;;;21.73;3.35;;;;;;;;;;5013550;28;20042;-72
2022/03/14 04:38:50;;;;;;;15.70;2.92;;;;;;;;;;5015201;28;20053;-76
2022/03/14 04:41:16;;;;;;;14.45;2.70;;;;;;;;;;5012387;28;20504;-72
2022/03/14 04:43:41;;;;;;;14.85;3.13;;;;;;;;;;5013949;28;20050;-73
2022/03/14 04:46:07;;;;;;;14.88;3.22;;;;;;;;;;5014832;28;20045;-73
2022/03/14 04:48:33;;;;;;;16.42;3.58;;;;;;;;;;5014898;28;20514;-72
2022/03/14 04:50:59;;;;;;;20.83;3.45;;;;;;;;;;5012547;28;20517;-72
2022/03/14 04:53:26;;;;;;;17.52;2.83;;;;;;;;;;5017054;28;20051;-73
2022/03/14 04:55:51;;;;;;;16.58;2.88;;;;;;;;;;5014952;28;20138;-71
2022/03/14 04:58:17;;;;;;;15.88;2.72;;;;;;;;;;5019723;28;20049;-73
2022/03/14 05:00:43;;;;;;;21.80;3.40;;;;;;;;;;5009936;28;20049;-73
2022/03/14 05:03:10;;;;;;;19.30;3.30;;;;;;;;;;5012801;28;20056;-73
2022/03/14 05:05:36;;;;;;;13.77;3.03;;;;;;;;;;5013705;28;20452;-76
2022/03/14 05:08:03;;;;;;;19.20;3.03;;;;;;;;;;5013472;28;20041;-75
2022/03/14 05:10:29;;;;;;;16.50;3.75;;;;;;;;;;5010953;28;20049;-76
2022/03/14 05:12:57;;;;;;;20.77;3.60;;;;;;;;;;5015133;28;20055;-74
2022/03/14 05:15:23;;;;;;;15.00;3.33;;;;;;;;;;5016285;28;20110;-74
2022/03/14 05:17:49;;;;;;;17.77;3.75;;;;;;;;;;5016618;28;20050;-72
2022/03/14 05:20:15;;;;;;;14.00;3.38;;;;;;;;;;5002852;28;20525;-73
2022/03/14 05:22:48;;;;;;;15.20;3.95;;;;;;;;;;5013756;28;20049;-72
2022/03/14 05:25:19;;;;;;;13.38;3.17;;;;;;;;;;5012987;28;20051;-74
2022/03/14 05:27:46;;;;;;;20.23;4.20;;;;;;;;;;5015976;28;20049;-73
2022/03/14 05:30:12;;;;;;;25.88;5.00;;;;;;;;;;5015052;28;20213;-73
2022/03/14 05:32:42;;;;;;;22.63;4.13;;;;;;;;;;5016728;28;20922;-73
2022/03/14 05:35:11;;;;;;;23.75;4.15;;;;;;;;;;5013817;28;20529;-70
2022/03/14 05:37:39;;;;;;;30.13;5.07;;;;;;;;;;5015659;28;20065;-72
2022/03/14 05:40:06;;;;;;;24.23;4.10;;;;;;;;;;5016707;28;20068;-71
2022/03/14 05:42:33;;;;;;;24.90;4.45;;;;;;;;;;5018750;28;20392;-72
2022/03/14 05:44:58;;;;;;;41.15;4.68;;;;;;;;;;5017334;28;20459;-75
2022/03/14 05:47:25;;;;;;;28.52;4.28;;;;;;;;;;5019144;28;20084;-74
2022/03/14 05:49:50;;;;;;;21.08;4.22;;;;;;;;;;5011024;28;20061;-75
2022/03/14 05:52:19;;;;;;;23.08;4.25;;;;;;;;;;5018247;28;20052;-73
2022/03/14 05:54:44;;;;;;;31.80;4.50;;;;;;;;;;5020430;28;20084;-75
2022/03/14 05:57:10;;;;;;;30.35;5.22;;;;;;;;;;5018442;28;20399;-74
2022/03/14 05:59:36;;;;;;;29.63;4.68;;;;;;;;;;5014311;28;20057;-72
2022/03/14 06:02:02;;;;;;;32.80;4.70;;;;;;;;;;5015607;28;20073;-74
2022/03/14 06:04:28;;;;;;;31.35;4.72;;;;;;;;;;5021740;28;20120;-76
2022/03/14 06:06:55;;;;;;;24.27;4.45;;;;;;;;;;5017247;28;20133;-72
2022/03/14 06:09:21;;;;;;;23.02;4.72;;;;;;;;;;5015984;28;20049;-73
2022/03/14 06:11:47;;;;;;;30.23;4.32;;;;;;;;;;5021580;28;20072;-71
2022/03/14 06:14:13;;;;;;;29.88;4.90;;;;;;;;;;5017085;28;20077;-73
2022/03/14 06:16:39;;;;;;;32.97;4.53;;;;;;;;;;5017060;28;20188;-74
2022/03/14 06:19:05;;;;;;;24.83;3.95;;;;;;;;;;5014399;28;20360;-75
2022/03/14 06:21:31;;;;;;;35.92;4.82;;;;;;;;;;5019190;28;20042;-73
2022/03/14 06:23:57;;;;;;;34.28;4.72;;;;;;;;;;5018130;28;20087;-75
2022/03/14 06:26:23;;;;;;;32.40;3.90;;;;;;;;;;5018356;28;20116;-76
2022/03/14 06:28:49;;;;;;;29.13;4.82;;;;;;;;;;5000096;28;20164;-74
2022/03/14 06:31:16;;;;;;;25.55;4.40;;;;;;;;;;5016163;28;20057;-74
2022/03/14 06:33:42;;;;;;;29.17;4.38;;;;;;;;;;5018700;28;20069;-74
2022/03/14 06:36:08;;;;;;;40.45;5.75;;;;;;;;;;5017366;28;20053;-76
2022/03/14 06:38:35;;;;;;;35.15;4.95;;;;;;;;;;5015201;28;20037;-76
2022/03/14 06:41:02;;;;;;;42.20;4.88;;;;;;;;;;5022636;28;20458;-77
2022/03/14 06:43:29;;;;;;;32.90;4.53;;;;;;;;;;5021676;28;20041;-75
2022/03/14 06:45:55;;;;;;;29.08;3.97;;;;;;;;;;5021466;28;20049;-78
2022/03/14 06:48:21;;;;;;;32.10;4.63;;;;;;;;;;5023863;28;20072;-78
2022/03/14 06:50:47;;;;;;;31.30;5.22;;;;;;;;;;5020852;28;20206;-80
2022/03/14 06:53:13;;;;;;;32.28;4.60;;;;;;;;;;5027023;28;20076;-75
2022/03/14 06:55:39;;;;;;;29.98;4.32;;;;;;;;;;5033462;28;20057;-77
2022/03/14 06:58:05;;;;;;;30.00;5.05;;;;;;;;;;5032537;28;20149;-78
2022/03/14 07:00:31;;;;;;;32.85;4.43;;;;;;;;;;5025559;28;20125;-78
2022/03/14 07:02:58;;;;;;;34.10;4.78;;;;;;;;;;5029361;28;20080;-80
2022/03/14 07:05:26;;;;;;;49.60;5.07;;;;;;;;;;5034124;28;20041;-78
2022/03/14 07:07:52;;;;;;;35.42;5.75;;;;;;;;;;5032054;28;20050;-79
2022/03/14 07:10:19;;;;;;;30.80;5.43;;;;;;;;;;5034129;28;20056;-77
2022/03/14 07:12:46;;;;;;;31.98;5.50;;;;;;;;;;5034680;28;20065;-78
2022/03/14 07:15:14;;;;;;;35.40;6.20;;;;;;;;;;5034258;28;20104;-78
2022/03/14 07:17:40;;;;;;;27.15;5.55;;;;;;;;;;5030256;28;20050;-77
2022/03/14 07:20:07;;;;;;;48.08;6.55;;;;;;;;;;5026863;28;20049;-74
2022/03/14 07:22:37;;;;;;;26.05;4.97;;;;;;;;;;5029444;28;20037;-76
2022/03/14 07:25:06;;;;;;;34.60;4.80;;;;;;;;;;5023941;28;20049;-76
2022/03/14 07:27:33;;;;;;;38.40;4.85;;;;;;;;;;5026492;28;20046;-74
2022/03/14 07:29:59;;;;;;;37.42;5.45;;;;;;;;;;5023668;28;20045;-71
2022/03/14 07:32:25;;;;;;;36.70;5.03;;;;;;;;;;5023497;28;20041;-74
2022/03/14 07:34:51;;;;;;;36.97;5.63;;;;;;;;;;5019660;28;20060;-75
2022/03/14 07:37:17;;;;;;;32.55;4.18;;;;;;;;;;5019300;28;20580;-74
2022/03/14 07:39:42;;;;;;;33.67;4.93;;;;;;;;;;5022738;28;20543;-76
2022/03/14 07:42:08;;;;;;;28.52;4.45;;;;;;;;;;5020044;28;20132;-74
2022/03/14 07:44:34;;;;;;;32.40;5.55;;;;;;;;;;5021107;28;20034;-69
2022/03/14 07:47:00;;;;;;;35.17;5.28;;;;;;;;;;5021473;28;20049;-72
2022/03/14 07:49:27;;;;;;;40.83;6.18;;;;;;;;;;5027857;28;20045;-73
2022/03/14 07:51:54;;;;;;;26.83;5.25;;;;;;;;;;5016314;28;20567;-73
2022/03/14 07:54:20;;;;;;;36.70;5.53;;;;;;;;;;5013372;28;20044;-76
2022/03/14 07:56:46;;;;;;;28.35;4.32;;;;;;;;;;5024849;28;20071;-75
2022/03/14 07:59:12;;;;;;;36.92;4.93;;;;;;;;;;5026516;28;20483;-72
2022/03/14 08:01:37;;;;;;;25.70;4.63;;;;;;;;;;5026207;28;20049;-73
2022/03/14 08:04:04;;;;;;;33.00;5.93;;;;;;;;;;5030266;28;20119;-75
2022/03/14 08:06:31;;;;;;;31.88;5.28;;;;;;;;;;5028951;28;20046;-76
2022/03/14 08:08:59;;;;;;;27.52;4.45;;;;;;;;;;5027911;28;20046;-74
2022/03/14 08:11:28;;;;;;;34.83;5.18;;;;;;;;;;5022018;28;20048;-73
2022/03/14 08:13:54;;;;;;;35.85;5.00;;;;;;;;;;5028417;28;20060;-74
2022/03/14 08:16:20;;;;;;;32.90;4.93;;;;;;;;;;5028660;28;20076;-75
2022/03/14 08:18:46;;;;;;;38.25;6.05;;;;;;;;;;5020440;28;20049;-75
2022/03/14 08:21:12;;;;;;;31.30;5.40;;;;;;;;;;5022372;28;20045;-74
2022/03/14 08:23:37;;;;;;;34.08;4.82;;;;;;;;;;5015035;28;20042;-78
2022/03/14 08:26:03;;;;;;;32.80;6.00;;;;;;;;;;5021542;28;20112;-75
2022/03/14 08:28:31;;;;;;;28.45;4.45;;;;;;;;;;5028264;28;20073;-75
2022/03/14 08:30:57;;;;;;;24.70;5.10;;;;;;;;;;5019090;28;20487;-74
2022/03/14 08:33:24;;;;;;;28.77;4.50;;;;;;;;;;5021624;28;20084;-75
2022/03/14 08:35:51;;;;;;;28.63;4.97;;;;;;;;;;5027635;28;20071;-73
2022/03/14 08:38:17;;;;;;;29.27;4.82;;;;;;;;;;5018435;28;20050;-73
2022/03/14 08:40:43;;;;;;;28.73;4.63;;;;;;;;;;5029056;28;20073;-75
2022/03/14 08:43:09;;;;;;;32.72;4.85;;;;;;;;;;5033135;28;20144;-73
2022/03/14 08:45:35;;;;;;;24.35;4.90;;;;;;;;;;5027195;28;20061;-74
2022/03/14 08:48:01;;;;;;;27.75;4.63;;;;;;;;;;5035879;28;20049;-73
2022/03/14 08:50:27;;;;;;;24.30;4.68;;;;;;;;;;5029230;28;20613;-74
2022/03/14 08:52:53;;;;;;;28.98;5.05;;;;;;;;;;5029835;28;20046;-74
2022/03/14 08:55:19;;;;;;;49.42;6.90;;;;;;;;;;5025525;28;20537;-74
2022/03/14 08:57:45;;;;;;;33.65;4.95;;;;;;;;;;5031934;28;20105;-75
2022/03/14 09:00:12;;;;;;;23.27;4.47;;;;;;;;;;5024430;28;20117;-74
2022/03/14 09:02:38;;;;;;;30.20;5.25;;;;;;;;;;5019096;28;20350;-75
2022/03/14 09:05:04;;;;;;;32.95;5.10;;;;;;;;;;5031263;28;20045;-75
2022/03/14 09:07:31;;;;;;;32.00;4.85;;;;;;;;;;5024333;28;20053;-74
2022/03/14 09:10:03;;;;;;;25.92;5.03;;;;;;;;;;5024909;28;20044;-76
2022/03/14 09:12:30;;;;;;;25.13;4.35;;;;;;;;;;5031627;28;20045;-75
2022/03/14 09:14:56;;;;;;;31.15;4.75;;;;;;;;;;5037296;28;20132;-77
2022/03/14 09:17:24;;;;;;;28.20;5.55;;;;;;;;;;5031729;28;20064;-77
2022/03/14 09:19:50;;;;;;;20.40;4.60;;;;;;;;;;5026336;28;20053;-73
2022/03/14 09:22:18;;;;;;;28.70;5.00;;;;;;;;;;5037180;28;20052;-76
2022/03/14 09:24:45;;;;;;;30.63;5.20;;;;;;;;;;5033846;28;20045;-74
2022/03/14 09:27:11;;;;;;;28.05;5.00;;;;;;;;;;5034637;28;20056;-75
2022/03/14 09:29:38;;;;;;;25.58;4.38;;;;;;;;;;5029700;28;20406;-76
2022/03/14 09:32:05;;;;;;;29.42;5.20;;;;;;;;;;5022853;28;20501;-80
2022/03/14 09:34:31;;;;;;;29.77;4.93;;;;;;;;;;5025416;28;20045;-75
2022/03/14 09:36:57;;;;;;;22.60;4.07;;;;;;;;;;5029799;28;20046;-77
2022/03/14 09:39:24;;;;;;;25.02;4.18;;;;;;;;;;5024216;28;20390;-78
2022/03/14 09:41:53;;;;;;;26.08;4.30;;;;;;;;;;5020052;28;20749;-75
2022/03/14 09:44:20;;;;;;;24.58;4.90;;;;;;;;;;5026546;28;20064;-76
2022/03/14 09:46:48;;;;;;;29.08;4.05;;;;;;;;;;5031346;28;20384;-77
2022/03/14 09:49:16;;;;;;;27.13;5.40;;;;;;;;;;5027553;28;20069;-80
2022/03/14 09:51:43;;;;;;;28.02;4.70;;;;;;;;;;5022193;28;20053;-78
2022/03/14 09:54:11;;;;;;;22.92;4.50;;;;;;;;;;5029668;28;20137;-76
2022/03/14 09:56:37;;;;;;;30.35;4.97;;;;;;;;;;5035059;28;20561;-79
2022/03/14 09:59:04;;;;;;;31.20;4.68;;;;;;;;;;5034763;28;20491;-78
2022/03/14 10:01:30;;;;;;;22.75;5.07;;;;;;;;;;5031717;28;20048;-78
2022/03/14 10:03:56;;;;;;;35.60;4.93;;;;;;;;;;5026721;28;20506;-77
2022/03/14 10:06:23;;;;;;;22.42;4.47;;;;;;;;;;5022566;28;20041;-77
2022/03/14 10:08:49;;;;;;;29.08;4.50;;;;;;;;;;5033163;28;20094;-77
2022/03/14 10:11:15;;;;;;;23.27;4.43;;;;;;;;;;5032672;28;20053;-79
2022/03/14 10:13:41;;;;;;;26.10;4.30;;;;;;;;;;5018656;28;20107;-78
2022/03/14 10:16:07;;;;;;;32.45;4.53;;;;;;;;;;5015869;28;20046;-77
2022/03/14 10:18:37;;;;;;;27.67;4.55;;;;;;;;;;5022898;28;20103;-77
2022/03/14 10:21:10;;;;;;;24.98;4.47;;;;;;;;;;5027940;28;20045;-78
2022/03/14 10:23:39;;;;;;;22.73;3.80;;;;;;;;;;5033402;28;20042;-79
2022/03/14 10:26:08;;;;;;;25.17;4.28;;;;;;;;;;5028681;28;20108;-77
2022/03/14 10:28:38;;;;;;;30.52;4.50;;;;;;;;;;5032323;28;20049;-76
2022/03/14 10:31:05;;;;;;;29.42;4.15;;;;;;;;;;5031851;28;20050;-77
2022/03/14 10:33:33;;;;;;;23.30;3.45;;;;;;;;;;5023631;28;20798;-78
2022/03/14 10:36:00;;;;;;;25.85;3.95;;;;;;;;;;5038533;28;20041;-77
2022/03/14 10:38:27;;;;;;;27.40;4.50;;;;;;;;;;5036539;28;20117;-79
2022/03/14 10:40:56;;;;;;;23.13;4.57;;;;;;;;;;5030976;28;20046;-79
2022/03/14 10:43:31;;;;;;;21.50;4.28;;;;;;;;;;5030245;28;20391;-78
2022/03/14 10:45:59;;;;;;;23.65;3.63;;;;;;;;;;5033138;28;20049;-76
2022/03/14 10:48:35;;;;;;;23.35;4.05;;;;;;;;;;5036298;28;20041;-78
2022/03/14 10:51:06;;;;;;;25.45;4.63;;;;;;;;;;5029898;28;20049;-77
2022/03/14 10:53:34;;;;;;;27.20;4.43;;;;;;;;;;5030465;28;20447;-78
2022/03/14 10:56:01;;;;;;;27.05;4.05;;;;;;;;;;5037470;28;20050;-77
2022/03/14 10:58:30;;;;;;;22.23;3.92;;;;;;;;;;5039724;28;20064;-76
2022/03/14 11:00:58;;;;;;;33.83;4.18;;;;;;;;;;5035856;28;20081;-78
2022/03/14 11:03:39;;;;;;;27.38;4.63;;;;;;;;;;5036877;28;20041;-79
2022/03/14 11:06:06;;;;;;;34.17;4.60;;;;;;;;;;5039861;28;20045;-80
2022/03/14 11:08:48;;;;;;;23.88;4.80;;;;;;;;;;5027962;28;20041;-79
2022/03/14 11:11:17;;;;;;;31.40;4.80;;;;;;;;;;5027003;28;20080;-78
2022/03/14 11:13:45;;;;;;;27.85;4.82;;;;;;;;;;5036242;28;20049;-78
2022/03/14 11:16:18;;;;;;;22.55;4.38;;;;;;;;;;5038179;28;20049;-76
2022/03/14 11:18:45;;;;;;;25.60;4.00;;;;;;;;;;5032803;28;20054;-77
2022/03/14 11:21:15;;;;;;;33.90;4.97;;;;;;;;;;5034463;28;20139;-80
2022/03/14 11:23:46;;;;;;;27.30;4.45;;;;;;;;;;5031138;28;20512;-78
2022/03/14 11:26:14;;;;;;;27.48;4.60;;;;;;;;;;5033613;28;20069;-77
2022/03/14 11:28:41;;;;;;;23.13;4.15;;;;;;;;;;5030388;28;20065;-76
2022/03/14 11:31:08;;;;;;;29.33;5.28;;;;;;;;;;5034252;28;20049;-77
2022/03/14 11:33:38;;;;;;;24.77;5.03;;;;;;;;;;5017560;28;20123;-76
2022/03/14 11:36:05;;;;;;;26.65;5.25;;;;;;;;;;5031473;28;20137;-76
2022/03/14 11:38:33;;;;;;;33.30;4.03;;;;;;;;;;5025931;28;20050;-79
2022/03/14 11:41:00;;;;;;;33.55;4.68;;;;;;;;;;5029767;28;20041;-76
2022/03/14 11:43:27;;;;;;;25.08;4.25;;;;;;;;;;5035783;28;20092;-80
2022/03/14 11:45:54;;;;;;;24.40;4.25;;;;;;;;;;5039077;28;20049;-77
2022/03/14 11:48:21;;;;;;;31.15;4.25;;;;;;;;;;5039688;28;20050;-78
2022/03/14 11:50:59;;;;;;;29.05;4.10;;;;;;;;;;5038094;28;20049;-78
2022/03/14 11:53:26;;;;;;;31.27;4.45;;;;;;;;;;5034235;28;20049;-78
2022/03/14 11:56:05;;;;;;;32.75;4.50;;;;;;;;;;5034130;28;20052;-78
2022/03/14 11:58:38;;;;;;;26.85;5.13;;;;;;;;;;5028246;28;20101;-76
2022/03/14 12:01:34;;;;;;;31.25;4.55;;;;;;;;;;5031165;28;20049;-77
2022/03/14 12:04:10;;;;;;;22.25;3.75;;;;;;;;;;5013228;28;20499;-76
2022/03/14 12:06:45;;;;;;;28.95;4.93;;;;;;;;;;5016147;28;20050;-77
2022/03/14 12:09:31;;;;;;;24.10;3.90;;;;;;;;;;5023877;28;20053;-80
2022/03/14 12:11:59;;;;;;;25.15;3.78;;;;;;;;;;5033528;28;20064;-76
2022/03/14 12:14:44;;;;;;;26.13;3.95;;;;;;;;;;5033866;28;20310;-79
2022/03/14 12:17:13;;;;;;;28.55;4.25;;;;;;;;;;5044785;28;20453;-79
2022/03/14 12:19:56;;;;;;;22.15;4.10;;;;;;;;;;5039106;28;20048;-77
2022/03/14 12:22:32;;;;;;;28.23;4.78;;;;;;;;;;5014994;28;20054;-78
2022/03/14 12:24:59;;;;;;;27.15;5.13;;;;;;;;;;5014745;28;20046;-77
2022/03/14 12:27:33;;;;;;;22.65;3.47;;;;;;;;;;5017129;28;20045;-78
2022/03/14 12:30:27;;;;;;;33.17;4.53;;;;;;;;;;5013490;28;20081;-77
2022/03/14 12:32:53;;;;;;;32.25;3.85;;;;;;;;;;5014669;28;20054;-79
2022/03/14 12:35:24;;;;;;;27.90;3.83;;;;;;;;;;5023339;28;20082;-78
2022/03/14 12:37:54;;;;;;;29.08;4.25;;;;;;;;;;5057149;28;20045;-78
2022/03/14 12:40:21;;;;;;;32.28;4.10;;;;;;;;;;5036146;28;20942;-77
2022/03/14 12:42:49;;;;;;;33.33;4.65;;;;;;;;;;5029602;28;20053;-76
2022/03/14 12:45:24;;;;;;;27.77;4.65;;;;;;;;;;5023970;28;20145;-75
2022/03/14 12:48:17;;;;;;;23.77;3.72;;;;;;;;;;5033361;28;20049;-77
2022/03/14 12:50:43;;;;;;;31.52;4.43;;;;;;;;;;5031069;28;20046;-78
2022/03/14 12:53:12;;;;;;;27.52;4.32;;;;;;;;;;5022697;28;20475;-77
2022/03/14 12:55:51;;;;;;;36.47;5.18;;;;;;;;;;5017908;28;20338;-81
2022/03/14 12:58:22;;;;;;;33.15;5.22;;;;;;;;;;5030705;28;20495;-76
2022/03/14 13:00:49;;;;;;;27.98;4.55;;;;;;;;;;5026468;28;20349;-77
2022/03/14 13:03:23;;;;;;;32.95;4.95;;;;;;;;;;5025451;28;20346;-77
2022/03/14 13:05:50;;;;;;;28.00;4.85;;;;;;;;;;5030772;28;20042;-76
2022/03/14 13:08:17;;;;;;;38.45;4.90;;;;;;;;;;5029762;28;20053;-76
2022/03/14 13:10:57;;;;;;;29.95;4.20;;;;;;;;;;5023374;28;20050;-79
2022/03/14 13:13:35;;;;;;;35.40;4.43;;;;;;;;;;5033547;28;20413;-79
2022/03/14 13:16:18;;;;;;;36.40;5.55;;;;;;;;;;5032941;28;20441;-77
2022/03/14 13:18:48;;;;;;;27.55;4.47;;;;;;;;;;5038228;28;20061;-78
2022/03/14 13:21:17;;;;;;;30.20;4.63;;;;;;;;;;5040649;28;20044;-78
2022/03/14 13:23:44;;;;;;;27.55;4.40;;;;;;;;;;5036879;28;20071;-78
2022/03/14 13:26:11;;;;;;;34.60;4.95;;;;;;;;;;5036549;28;20045;-77
2022/03/14 13:28:39;;;;;;;38.83;5.50;;;;;;;;;;5042138;28;20041;-79
2022/03/14 13:31:09;;;;;;;33.33;5.65;;;;;;;;;;5033208;28;20054;-79
2022/03/14 13:33:44;;;;;;;30.88;4.90;;;;;;;;;;5031604;28;20084;-77
2022/03/14 13:36:12;;;;;;;34.67;4.60;;;;;;;;;;5033529;28;20060;-79
2022/03/14 13:38:40;;;;;;;35.28;5.50;;;;;;;;;;5029929;28;20065;-78
2022/03/14 13:41:12;;;;;;;33.20;5.00;;;;;;;;;;5018325;28;20050;-80
2022/03/14 13:43:41;;;;;;;28.98;4.35;;;;;;;;;;5023143;28;20042;-79
2022/03/14 13:46:35;;;;;;;37.17;5.38;;;;;;;;;;5035782;28;20068;-79
2022/03/14 13:49:14;;;;;;;40.28;5.28;;;;;;;;;;5036025;28;20052;-79
2022/03/14 13:51:56;;;;;;;26.85;3.95;;;;;;;;;;5041431;28;20103;-78
2022/03/14 13:54:32;;;;;;;34.38;5.80;;;;;;;;;;5041290;28;20037;-78
2022/03/14 13:57:10;;;;;;;31.10;5.10;;;;;;;;;;5040959;28;20046;-78
2022/03/14 13:59:47;;;;;;;39.55;5.10;;;;;;;;;;5025355;28;20048;-79
2022/03/14 14:02:21;;;;;;;32.30;4.60;;;;;;;;;;5027707;28;20053;-79
2022/03/14 14:04:51;;;;;;;35.05;5.68;;;;;;;;;;5025335;28;20046;-79
2022/03/14 14:07:30;;;;;;;33.42;5.40;;;;;;;;;;5031481;28;20088;-81
2022/03/14 14:09:56;;;;;;;35.88;4.93;;;;;;;;;;5035592;28;20041;-78
2022/03/14 14:12:32;;;;;;;35.42;6.10;;;;;;;;;;5022183;28;20443;-78
2022/03/14 14:15:02;;;;;;;34.67;5.55;;;;;;;;;;5033953;28;20050;-77
2022/03/14 14:17:32;;;;;;;28.40;5.20;;;;;;;;;;5037254;28;20041;-78
2022/03/14 14:20:20;;;;;;;34.55;5.60;;;;;;;;;;5023310;28;20099;-78
2022/03/14 14:22:54;;;;;;;32.35;5.78;;;;;;;;;;5025164;28;20106;-77
2022/03/14 14:25:27;;;;;;;39.55;5.28;;;;;;;;;;5031939;28;20057;-78
2022/03/14 14:28:00;;;;;;;40.13;6.28;;;;;;;;;;5036620;28;20072;-78
2022/03/14 14:30:30;;;;;;;35.25;5.95;;;;;;;;;;5038420;28;20114;-77
2022/03/14 14:32:58;;;;;;;33.95;5.68;;;;;;;;;;5043054;28;20049;-78
2022/03/14 14:35:24;;;;;;;30.20;4.68;;;;;;;;;;5042555;28;20045;-79
2022/03/14 14:37:50;;;;;;;34.95;5.95;;;;;;;;;;5040499;28;20498;-78
2022/03/14 14:40:16;;;;;;;34.13;5.70;;;;;;;;;;5042307;28;20140;-80